»·PEaware :: N2102W L35-KCNO

N2102W :: L35-KCNO

FLIGHT INFORMATION

Flight Status: Arrived
Operator: Privately registered:
United States
More flights under this callsign
Pilot: Eric G. (5941)
Aircraft: BEECH AIRCRAFT BARON
(BE58)
More flights by this aircraft type
Origin: L35 Big Bear City
United States
Destination: KCNO Chino
United States
More flights between these airports :: More routes between these airports
Route: VP597
File this flight plan on PilotEdge
Remarks: NA
Altitude:
(Current/Filed)
12,500ft
Speed:
(Current/Filed)
175kts
Departed: 18-Oct-20 07:11 AM
Arrived: 18-Oct-20 07:36 AM
Distance/Time
Traveled:
42nm/0:25
Distance/Time
To Go:
Arrived

Flight Plot

Page will automatically refresh every two minutes.

Flight plan parsing failed; only flown route is shown


Map Options




Map Legend


Flown Route
Filed Route
Departure Airport
Arrival Airport
Navaid (VOR, NDB)
Fix

Horizontal Profiles

Position Reports

Time Latitude Longitude Heading Altitude Ground
Speed
18-Oct-20 06:47 34.263055 -116.852842 179 6757ft 0kts
18-Oct-20 06:48 34.263055 -116.852842 179 6757ft 0kts
18-Oct-20 06:49 34.263055 -116.852842 179 6757ft 0kts
18-Oct-20 06:50 34.263055 -116.852842 179 6757ft 0kts
18-Oct-20 06:51 34.263055 -116.852842 179 6757ft 0kts
18-Oct-20 06:52 34.263055 -116.852842 179 6757ft 0kts
18-Oct-20 06:53 34.263055 -116.852842 179 6757ft 0kts
18-Oct-20 06:54 34.263055 -116.852842 179 6757ft 0kts
18-Oct-20 06:55 34.263055 -116.852842 179 6757ft 0kts
18-Oct-20 06:56 34.263055 -116.852842 179 6757ft 0kts
18-Oct-20 06:57 34.263055 -116.852842 179 6757ft 0kts
18-Oct-20 06:58 34.263055 -116.852842 179 6757ft 0kts
18-Oct-20 06:59 34.263055 -116.852842 179 6757ft 0kts
18-Oct-20 07:00 34.263055 -116.852842 179 6757ft 0kts
18-Oct-20 07:01 34.263055 -116.852842 179 6757ft 0kts
18-Oct-20 07:02 34.263055 -116.852842 179 6757ft 0kts
18-Oct-20 07:03 34.263055 -116.852842 179 6757ft 0kts
18-Oct-20 07:04 34.262949 -116.852900 211 6757ft 4kts
18-Oct-20 07:05 34.263176 -116.854879 214 6755ft 8kts
18-Oct-20 07:06 34.263256 -116.852959 91 6757ft 8kts
18-Oct-20 07:07 34.263268 -116.847060 90 6754ft 21kts
18-Oct-20 07:08 34.263274 -116.846795 87 6754ft 0kts
18-Oct-20 07:09 34.263353 -116.846469 38 6753ft 6kts
18-Oct-20 07:10 34.263821 -116.852107 269 6757ft 83kts
18-Oct-20 07:11 34.261803 -116.896633 259 7562ft 155kts
18-Oct-20 07:12 34.251155 -116.948664 254 8579ft 156kts
18-Oct-20 07:13 34.246699 -117.003372 284 9113ft 164kts
18-Oct-20 07:14 34.260984 -117.057228 288 9566ft 167kts
18-Oct-20 07:15 34.272692 -117.108048 282 10604ft 152kts
18-Oct-20 07:16 34.281494 -117.157335 281 11595ft 148kts
18-Oct-20 07:17 34.289685 -117.205610 281 12476ft 151kts
18-Oct-20 07:18 34.298556 -117.259018 281 12570ft 167kts
18-Oct-20 07:19 34.307597 -117.314254 281 12569ft 167kts
18-Oct-20 07:20 34.316499 -117.369346 281 12570ft 166kts
18-Oct-20 07:21 34.325342 -117.424258 281 12471ft 171kts
18-Oct-20 07:22 34.303329 -117.470174 198 11680ft 196kts
18-Oct-20 07:23 34.249437 -117.476650 191 11090ft 188kts
18-Oct-20 07:24 34.198349 -117.484908 191 11075ft 183kts
18-Oct-20 07:25 34.148187 -117.472898 151 10117ft 191kts
18-Oct-20 07:26 34.105349 -117.442403 151 8670ft 168kts
18-Oct-20 07:27 34.066492 -117.415514 151 6478ft 158kts
18-Oct-20 07:28 34.027393 -117.389576 151 4648ft 170kts
18-Oct-20 07:29 33.993584 -117.413867 238 4038ft 170kts
18-Oct-20 07:31 33.978021 -117.465938 268 3430ft 169kts
18-Oct-20 07:32 33.976670 -117.520583 270 2200ft 142kts
18-Oct-20 07:33 33.976085 -117.569006 271 1768ft 136kts
18-Oct-20 07:34 33.975931 -117.606448 270 1092ft 99kts
18-Oct-20 07:35 33.975808 -117.637134 269 632ft 63kts
18-Oct-20 07:36 33.976455 -117.644142 358 620ft 0kts
18-Oct-20 07:37 33.976934 -117.640293 87 625ft 32kts
18-Oct-20 07:38 33.979026 -117.635371 91 639ft 0kts
18-Oct-20 07:39 33.979026 -117.635371 91 639ft 0kts
18-Oct-20 07:40 33.979026 -117.635371 91 639ft 0kts
18-Oct-20 07:41 33.979026 -117.635371 91 639ft 0kts
18-Oct-20 07:42 33.979026 -117.635371 91 639ft 0kts
18-Oct-20 07:43 33.979026 -117.635371 91 639ft 0kts
18-Oct-20 07:44 33.979026 -117.635371 91 639ft 0kts
18-Oct-20 07:45 33.979026 -117.635371 91 639ft 0kts
18-Oct-20 07:45 33.979026 -117.635371 91 639ft 0kts
18-Oct-20 07:47 33.979026 -117.635371 91 639ft 0kts
18-Oct-20 07:47 33.979026 -117.635371 91 639ft 0kts
18-Oct-20 07:49 33.979026 -117.635371 91 639ft 0kts
18-Oct-20 07:50 33.979026 -117.635371 91 639ft 0kts

Navigation Log

Ident Type
Flight plan parsing failed, navigation log unavailable